Winona Lake, IN (46590)

3:29 PM EDT on July 06, 2015 (GMT -0400)
Winona Lake | | Change Station
CLOSE
Current Station
Personal Weather Station
Location: Winona Lake, IN
Elevation: 820 ft
Nearby Weather Stations

Elev 820 ft 41.22 °N, 85.82 °W | Updated 27 minutes ago

Mostly Cloudy
Mostly Cloudy
84.1 °F
Feels Like 88 °F
N
1.0
Wind Variable Wind from SW
Gusts 9.0 mph

Today
High -- | Low -- °F
--% Chance of Precip.
Yesterday
High -- | Low -- °F
Precip. -- in
6:16 AM 9:18 PM
Waning Gibbous, 73% visible
Pressure 29.97 in
Visibility 6.0 miles
Clouds Scattered Clouds 3600 ft
Scattered Clouds 4400 ft
Heat Index 88 °F
Dew Point 69 °F
Humidity 61%
Rainfall 0.00 in
Snow Depth Not available.
UV 9 out of 12
Pollen 3.80 out of 12
Air Quality Not available.
Flu Activity Not available.
METAR KGSH 061853Z AUTO 19012KT 6SM HZ SCT036 SCT044 28/19 A2998 RMK AO2 SLP148 T02780194

More Conditions Fewer Conditions

Pressure 29.97 in
Visibility 6.0 miles
Clouds Scattered Clouds 3600 ft
Scattered Clouds 4400 ft
Heat Index 88 °F
Dew Point 69 °F
Humidity 61%
Rainfall 0.00 in
Snow Depth Not available.
UV 9 out of 12
Pollen 3.80 out of 12
Air Quality Not available.
Flu Activity Not available.
METAR KGSH 061853Z AUTO 19012KT 6SM HZ SCT036 SCT044 28/19 A2998 RMK AO2 SLP148 T02780194

More Conditions Fewer Conditions

10-Day Weather Forecast

×

Almanac

Astronomy

Jul. 06, 2015 Rise Set
Actual Time
Civil Twilight
Nautical Twilight
Astronomical Twilight
Moon
Length of Visible Light
Length of Day
Tomorrow will be .
, % of the Moon is Illuminated

Today's Extremes

State Highs State Lows

Community

WunderPhotos

Upload Photos

1,835,621 photos uploaded!

WunderBlogs® & News

Nearby

Air Quality

  Air Quality AQ Index Pollutant
Not available.

Snow Depth

Station Depth Elevation

Earthquake Activity

City Distance Mag. Time & Date
Minimum magnitude displayed is 2.5.

Coastal Water Temperatures

Place Temperature

Stations

Nearby Weather Stations

Station Location Temp. Windchill Dew Point Humidity Wind Precip. Elev Updated Type